createdAt,value
2023-03-14T00:00:39.015Z,0.77
2023-03-14T00:10:38.117Z,0.64
2023-03-14T00:20:46.689Z,0.73
2023-03-14T00:30:54.951Z,1.16
2023-03-14T00:41:03.052Z,1.67
2023-03-14T00:51:11.657Z,1.23
2023-03-14T01:01:34.710Z,0.96
2023-03-14T01:11:37.780Z,0.82
2023-03-14T01:22:05.533Z,0.6
2023-03-14T01:31:48.898Z,0.58
2023-03-14T01:51:44.190Z,0.42
2023-03-14T02:01:53.241Z,0.89
2023-03-14T02:12:03.447Z,0.84
2023-03-14T02:22:02.841Z,1.13
2023-03-14T02:32:09.910Z,0.76
2023-03-14T02:42:17.890Z,0.57
2023-03-14T02:52:26.005Z,0.55
2023-03-14T03:02:34.357Z,0.62
2023-03-14T03:12:43.710Z,0.59
2023-03-14T03:22:51.679Z,0.72
2023-03-14T03:33:01.300Z,0.68
2023-03-14T03:43:09.470Z,0.67
2023-03-14T03:53:23.548Z,0.79
2023-03-14T04:03:24.281Z,0.83
2023-03-14T04:13:34.214Z,0.78
2023-03-14T04:23:42.315Z,0.89
2023-03-14T04:33:49.878Z,0.88
2023-03-14T04:43:58.034Z,0.96
2023-03-14T04:54:06.301Z,0.86
2023-03-14T05:04:14.432Z,0.88
2023-03-14T05:14:22.578Z,0.99
2023-03-14T05:24:33.445Z,1.03
2023-03-14T05:34:31.700Z,1.04
2023-03-14T05:44:39.907Z,1.81
2023-03-14T05:54:49.296Z,1.21
2023-03-14T06:04:57.386Z,1.44
2023-03-14T06:15:07.118Z,1.26
2023-03-14T06:25:15.138Z,1.23
2023-03-14T06:35:28.736Z,1.47
2023-03-14T06:45:35.554Z,2.06
2023-03-14T06:55:33.860Z,1.69
2023-03-14T07:05:42.181Z,1.28
2023-03-14T07:15:51.322Z,1.99
2023-03-14T07:25:59.261Z,1.07
2023-03-14T07:36:07.406Z,0.96
2023-03-14T07:46:17.834Z,2.04
2023-03-14T07:56:15.689Z,1.7
2023-03-14T08:06:23.465Z,1.22
2023-03-14T08:16:31.524Z,1.52
2023-03-14T08:26:39.527Z,1.37
2023-03-14T08:36:47.408Z,1.27
2023-03-14T08:46:55.429Z,1.27
2023-03-14T08:57:04.495Z,1.53
2023-03-14T09:07:14.441Z,1.24
2023-03-14T09:17:23.496Z,1.1
2023-03-14T09:27:31.468Z,1.11
2023-03-14T09:37:41.197Z,1.37
2023-03-14T09:47:58.502Z,1.07
2023-03-14T09:57:55.102Z,1.44
2023-03-14T10:08:03.907Z,1.4
2023-03-14T10:18:11.850Z,1.19
2023-03-14T10:28:19.879Z,1.21
2023-03-14T10:38:30.276Z,1.34
2023-03-14T10:48:28.933Z,1.72
2023-03-14T10:58:36.448Z,1.63
2023-03-14T11:08:49.275Z,1.16
2023-03-14T11:18:48.920Z,1.26
2023-03-14T11:28:56.945Z,1.01
2023-03-14T11:39:05.432Z,1.4
2023-03-14T11:49:13.491Z,1.44
2023-03-14T11:59:21.440Z,1.43
2023-03-14T12:09:29.496Z,1.6
2023-03-14T12:19:37.387Z,2.48
2023-03-14T12:29:45.259Z,1.45
2023-03-14T12:39:53.251Z,1.51
2023-03-14T12:50:02.183Z,1
2023-03-14T13:00:12.874Z,1.2
2023-03-14T13:20:18.245Z,1.12
2023-03-14T13:30:27.736Z,1.24
2023-03-14T13:40:37.845Z,1.18
2023-03-14T13:50:36.043Z,1.37
2023-03-14T14:00:44.380Z,1.52
2023-03-14T14:10:52.399Z,0.92
2023-03-14T14:21:01.512Z,1
2023-03-14T14:31:09.645Z,0.92
2023-03-14T14:41:19.289Z,0.91
2023-03-14T14:51:25.152Z,0.88
2023-03-14T15:01:37.627Z,0.88
2023-03-14T15:11:35.942Z,1.01
2023-03-14T15:21:46.758Z,0.84
2023-03-14T15:31:46.051Z,1.13
2023-03-14T15:41:54.010Z,0.92
2023-03-14T15:52:02.328Z,1.46
2023-03-14T16:02:20.240Z,1.02
2023-03-14T16:12:34.606Z,0.75
2023-03-14T16:23:18.335Z,1.05
2023-03-14T16:32:32.271Z,1
2023-03-14T16:42:29.016Z,0.82
2023-03-14T16:52:38.321Z,1.16
2023-03-14T17:02:47.967Z,0.82
2023-03-14T17:12:55.943Z,0.91
2023-03-14T17:23:04.006Z,1.08
2023-03-14T17:33:12.321Z,0.69
2023-03-14T17:43:20.417Z,0.92
2023-03-14T17:53:31.415Z,0.96
2023-03-14T18:03:29.494Z,0.65
2023-03-14T18:13:38.530Z,0.77
2023-03-14T18:23:46.214Z,1.05
2023-03-14T18:33:55.755Z,0.78
2023-03-14T18:44:04.720Z,0.66
2023-03-14T18:54:12.482Z,0.9
2023-03-14T19:04:21.974Z,0.82
2023-03-14T19:14:34.216Z,1.15
2023-03-14T19:24:32.381Z,1.19
2023-03-14T19:34:42.336Z,1.51
2023-03-14T19:44:51.852Z,2.12
2023-03-14T19:54:53.625Z,2.54
2023-03-14T20:04:52.584Z,2.2
2023-03-14T20:15:04.607Z,1.92
2023-03-14T20:25:02.883Z,2.08
2023-03-14T20:35:11.230Z,2.34
2023-03-14T20:45:19.201Z,2.75
2023-03-14T20:55:29.472Z,2.33
2023-03-14T21:05:26.854Z,2.06
2023-03-14T21:15:34.525Z,2.12
2023-03-14T21:25:44.697Z,1.95
2023-03-14T21:35:51.894Z,2.25
2023-03-14T21:46:03.912Z,2.34
2023-03-14T21:56:06.322Z,2.56
2023-03-14T22:06:07.029Z,2.13
2023-03-14T22:16:18.645Z,2.7
2023-03-14T22:26:06.037Z,2.71
2023-03-14T22:36:19.351Z,2.78
2023-03-14T22:46:16.757Z,3.3
2023-03-14T22:56:23.839Z,2.43
2023-03-14T23:06:31.987Z,2.87
2023-03-14T23:16:41.210Z,2.81
2023-03-14T23:26:50.076Z,2.44
2023-03-14T23:36:59.600Z,2.45
2023-03-14T23:47:06.266Z,2.48
2023-03-14T23:57:15.063Z,2.1
